• Join FlightAware (Why Join?)
  • Login
  • US Flag 
11:19PM EST


 

Airport Tracker/Info


-or-


 

Live Flight TrackerFlight Track Log ✈ FFT915 ✈ 02-May-2014 ✈ KMDW - KDEN

Flight Track Log - Related Links

Times and Time Zones

All times are in EDT time to prevent confusion due to time zone crossing. See the FFT915 flight status page for this flight to view local times or setup timezone preferences in your user account.

Time Position Orientation Groundspeed Altitude Reporting Facility
EDT Latitude Longitude Course Direction KTS MPH feet Rate Location/Type
07:04PM 41.7431 -87.8653 237° Southwest 208 239 4,700  Level Chicago Center
07:05PM 41.7119 -87.9536 245° Southwest 247 284 7,900 2,940 Climbing Chicago Center
07:06PM 41.7019 -88.0464 262° West 251 289 10,800 2,940 Climbing Chicago Center
07:07PM 41.7111 -88.1533 277° West 269 310 14,000 1,980 Climbing Chicago Center
07:08PM 41.7253 -88.2603 280° West 298 343 15,000 1,440 Climbing Chicago Center
07:09PM 41.7406 -88.3767 280° West 316 364 17,000 1,980 Climbing Chicago Center
07:10PM 41.7550 -88.4892 280° West 326 375 19,100 2,220 Climbing Chicago Center
07:11PM 41.7747 -88.6411 280° West 345 397 21,700 2,220 Climbing Chicago Center
07:12PM 41.7853 -88.7722 276° West 355 409 23,700 1,800 Climbing Chicago Center
07:13PM 41.7789 -88.9075 266° West 363 418 25,500 1,680 Climbing Chicago Center
07:14PM 41.7742 -89.0447 267° West 367 422 27,200 1,500 Climbing Chicago Center
07:15PM 41.7692 -89.1861 267° West 376 433 28,600 1,380 Climbing Chicago Center
07:16PM 41.7639 -89.3625 268° West 391 450 30,100 1,320 Climbing Chicago Center
07:17PM 41.7569 -89.5092 266° West 395 455 31,400 1,200 Climbing Chicago Center
07:18PM 41.7514 -89.6656 267° West 400 460 32,700 1,380 Climbing Chicago Center
07:19PM 41.7453 -89.8153 267° West 400 460 34,300 1,380 Climbing Chicago Center
07:20PM 41.7381 -89.9606 266° West 395 455 35,600 1,020 Climbing Chicago Center
07:21PM 41.7322 -90.1033 267° West 390 449 36,500 600 Climbing Chicago Center
07:22PM 41.7264 -90.2514 267° West 394 453 36,900 420 Climbing Chicago Center
07:23PM 41.7181 -90.4072 266° West 416 479 37,400 480 Climbing Chicago Center
07:25PM 41.7094 -90.5894 266° West 414 476 38,000 240 Climbing Chicago Center
07:26PM 41.7008 -90.7514 266° West 414 476 38,000  Level Chicago Center
07:27PM 41.6942 -90.9033 267° West 413 475 38,000  Level Chicago Center
07:28PM 41.6853 -91.0581 266° West 414 476 38,000  Level Chicago Center
07:29PM 41.6761 -91.2114 265° West 416 479 38,000  Level Chicago Center
07:30PM 41.6689 -91.3628 266° West 415 478 38,000 -60 Level Chicago Center
07:31PM 41.6608 -91.5139 266° West 413 475 37,900  Descending Chicago Center
07:32PM 41.6494 -91.6936 265° West 409 471 38,000  Climbing Chicago Center
07:33PM 41.6400 -91.8450 265° West 409 471 38,000  Level Chicago Center
07:34PM 41.6317 -91.9961 266° West 409 471 38,000  Level Chicago Center
07:35PM 41.6217 -92.1450 265° West 407 468 38,000  Level Chicago Center
07:36PM 41.6122 -92.2964 265° West 408 470 38,000  Level Chicago Center
07:37PM 41.6006 -92.4747 265° West 407 468 38,000  Level Chicago Center
07:38PM 41.5908 -92.6286 265° West 412 474 38,000  Level Chicago Center
07:39PM 41.5811 -92.7733 265° West 416 479 38,000  Level Chicago Center
07:40PM 41.5697 -92.9250 264° West 416 479 38,000  Level Chicago Center
07:41PM 41.5569 -93.1122 265° West 425 489 38,000  Level Chicago Center
07:42PM 41.5456 -93.2647 264° West 422 486 38,000  Level Chicago Center
07:43PM 41.5347 -93.4183 265° West 422 486 38,000  Level Chicago Center
07:44PM 41.5233 -93.5722 264° West 422 486 38,000  Level Chicago Center
07:45PM 41.5083 -93.7547 264° West 420 483 38,000  Level Chicago Center
07:46PM 41.4975 -93.9061 265° West 418 481 38,000  Level Chicago Center
07:47PM 41.4844 -94.0572 263° West 416 479 38,000  Level Chicago Center
07:48PM 41.4733 -94.2036 264° West 409 471 38,000  Level Chicago Center
07:49PM 41.4608 -94.3519 264° West 405 466 38,000  Level Chicago Center
07:51PM 41.4425 -94.5753 264° West 407 468 38,000  Level Minneapolis Center
07:52PM 41.4314 -94.7247 264° West 407 468 38,000  Level Minneapolis Center
07:53PM 41.4178 -94.8736 263° West 407 468 38,000 -60 Level Minneapolis Center
07:54PM 41.4039 -95.0222 263° West 406 467 37,900  Descending Minneapolis Center
07:55PM 41.3917 -95.1717 264° West 406 467 38,000  Climbing Minneapolis Center
07:56PM 41.3747 -95.3547 263° West 411 473 38,000  Level Minneapolis Center
07:57PM 41.3603 -95.5061 263° West 411 473 38,000  Level Minneapolis Center
07:58PM 41.3478 -95.6511 263° West 416 479 38,000  Level Minneapolis Center
07:59PM 41.3328 -95.8025 263° West 416 479 38,000  Level Minneapolis Center
08:00PM 41.3189 -95.9542 263° West 416 479 38,000  Level Minneapolis Center
08:01PM 41.3000 -96.1350 262° West 415 478 38,000  Level Minneapolis Center
08:02PM 41.2858 -96.2814 263° West 406 467 38,000 -60 Level Minneapolis Center
08:03PM 41.2731 -96.4203 263° West 404 465 37,900 -540 Descending Minneapolis Center
08:04PM 41.2586 -96.5653 262° West 398 458 36,900 -960 Descending Minneapolis Center
08:05PM 41.2422 -96.7072 261° West 392 451 36,000 -480 Descending Minneapolis Center
08:06PM 41.2281 -96.8503 263° West 392 451 36,000  Level Minneapolis Center
08:07PM 41.2094 -97.0211 262° West 392 451 36,000  Level Minneapolis Center
08:08PM 41.1944 -97.1644 262° West 391 450 36,000  Level Minneapolis Center
08:09PM 41.1792 -97.3069 262° West 391 450 36,000  Level Minneapolis Center
08:10PM 41.1619 -97.4583 261° West 391 450 36,000  Level Minneapolis Center
08:11PM 41.1464 -97.6028 262° West 392 451 36,000  Level Minneapolis Center
08:12PM 41.1303 -97.7467 262° West 393 452 36,000  Level Minneapolis Center
08:13PM 41.1139 -97.8919 262° West 394 453 36,000  Level Minneapolis Center
08:14PM 41.0978 -98.0367 262° West 394 453 36,000  Level Minneapolis Center
08:15PM 41.0806 -98.1819 261° West 395 455 36,000  Level Minneapolis Center
08:16PM 41.0606 -98.3567 261° West 398 458 36,000  Level Minneapolis Center
08:18PM 41.0458 -98.4911 262° West 398 458 36,000  Level Minneapolis Center
08:19PM 41.0306 -98.6367 262° West 398 458 36,000  Level Minneapolis Center
08:20PM 41.0114 -98.7819 260° West 398 458 36,000  Level Minneapolis Center
08:21PM 40.9961 -98.9303 262° West 403 464 36,000  Level Minneapolis Center
08:22PM 40.9761 -99.1064 262° West 403 464 36,000  Level Minneapolis Center
08:22PM 40.9672 -99.1864 262° West 402 463 36,000  Level Denver Center
08:23PM 40.9494 -99.3344 261° West 402 463 36,000  Level Denver Center
08:24PM 40.9322 -99.4806 261° West 403 464 36,000  Level Denver Center
08:25PM 40.9114 -99.6572 261° West 403 464 36,000  Level Denver Center
08:26PM 40.8933 -99.8033 261° West 403 464 36,000  Level Denver Center
08:27PM 40.8753 -99.9519 261° West 403 464 36,000  Level Denver Center
08:29PM 40.8581 -100.0925 261° West 403 464 36,000  Level Denver Center
08:30PM 40.8369 -100.2578 260° West 404 465 36,000  Level Denver Center
08:31PM 40.8194 -100.3989 261° West 406 467 36,000  Level Denver Center
08:32PM 40.7989 -100.5631 261° West 406 467 36,000  Level Denver Center
08:33PM 40.7778 -100.7167 260° West 406 467 36,000  Level Denver Center
08:34PM 40.7533 -100.8550 257° West 413 475 36,000  Level Denver Center
08:35PM 40.7267 -101.0203 258° West 412 474 36,000  Level Denver Center
08:36PM 40.7022 -101.1611 257° West 412 474 36,000  Level Denver Center
08:37PM 40.6736 -101.3233 257° West 409 471 36,000  Level Denver Center
08:38PM 40.6494 -101.4636 257° West 410 472 36,000  Level Denver Center
08:39PM 40.6203 -101.6275 257° West 410 472 36,000  Level Denver Center
08:40PM 40.5944 -101.7683 256° West 412 474 36,000  Level Denver Center
08:41PM 40.5642 -101.9328 256° West 414 476 36,000 -60 Level Denver Center
08:42PM 40.5386 -102.0731 257° West 414 476 35,900 -540 Descending Denver Center
08:43PM 40.5122 -102.2117 256° West 412 474 35,000 -1,020 Descending Denver Center
08:44PM 40.4828 -102.3761 257° West 412 474 33,900 -1,020 Descending Denver Center
08:45PM 40.4569 -102.5175 257° West 416 479 33,000 -1,020 Descending Denver Center
08:46PM 40.4261 -102.6817 256° West 436 502 31,900 -1,020 Descending Denver Center
08:47PM 40.3969 -102.8358 256° West 437 503 30,900 -1,020 Descending Denver Center
08:48PM 40.3678 -102.9917 256° West 441 507 29,900 -1,080 Descending Denver Center
08:49PM 40.3319 -103.1753 256° West 438 504 28,700 -1,620 Descending Denver Center
08:50PM 40.3031 -103.3267 256° West 433 498 26,600 -2,100 Descending Denver Center
08:51PM 40.2739 -103.4706 255° West 415 478 24,400 -2,100 Descending Denver Center
08:52PM 40.2469 -103.6108 256° West 402 463 22,300 -1,800 Descending Denver Center
08:53PM 40.2186 -103.7644 256° West 393 452 20,400 -1,320 Descending Denver Center
08:55PM 40.1756 -103.9056 248° West 342 394 19,300 -1,140 Descending Denver Center
08:56PM 40.1286 -104.0067 239° Southwest 332 382 18,100 -1,200 Descending Denver Center
08:57PM 40.0794 -104.1131 239° Southwest 321 369 16,900 -1,200 Descending Denver Center
08:58PM 40.0350 -104.2108 239° Southwest 316 364 15,700 -1,140 Descending Denver Center
08:59PM 39.9900 -104.3056 238° Southwest 305 351 14,600 -1,140 Descending Denver Center
09:00PM 39.9431 -104.4061 239° Southwest 301 346 13,400 -900 Descending Denver Center
09:01PM 39.9081 -104.4811 239° Southwest 293 337 12,800 -1,020 Descending Denver Center
09:02PM 39.8200 -104.5000 189° South 269 310 11,300 -1,260 Descending Denver Center
09:03PM 39.7478 -104.5019 181° South 261 300 10,300 -780 Descending Denver Center
09:04PM 39.6761 -104.5036 181° South 254 292 9,800 -540 Descending Denver Center
09:05PM 39.6042 -104.5042 180° South 246 283 9,200 -480 Descending Denver Center
09:06PM 39.5883 -104.5711 253° West 208 239 8,900 -180 Descending Denver Center
09:07PM 39.6275 -104.6183 317° Northwest 199 229 8,900 -360 Level Denver Center
09:08PM 39.6775 -104.6431 339° North 192 221 8,200 -840 Descending Denver Center
09:09PM 39.7322 -104.6431 360° North 198 228 7,200 -1,020 Descending Denver Center
09:10PM 39.7861 -104.6422 North 183 211 6,200 -840 Descending Denver Center
09:11PM 39.8244 -104.6417 North 143 165 5,500 -720 Descending Denver Center
09:13PM 39.8500 -104.6667 341° North  Level FlightAware Approximate
09:20PM 39.8617 -104.6732 341° North  Level Estimated
09:21PM 39.8617 -104.6732 North  Level Estimated